Terminal Aerodrome Forecast
Issued by NWS

Home | Current Version | Previous Version | Text Only | Print | Product List | Glossary On
Versions: 1 2 3 4 5 6 7 8 9 10 11 12
000
FTUS46 KMTR 231720
TAFSJC
TAF
KSJC 231720Z 2318/2418 32005KT P6SM SKC
     FM232000 30011KT P6SM SKC
     FM240400 29005KT P6SM SKC
     FM240800 13006KT P6SM SKC
     FM241600 14004KT P6SM SKC=

USA.gov is the U.S. government's official web portal to all federal, state and local government web resources and services.